sensor_id;sensor_type;location;lat;lon;timestamp;pressure;altitude;pressure_sealevel;temperature;humidity
52319;BME280;38258;51.148;14.068;2023-02-10T00:00:46;99948.69;;;-5.33;100.00
52319;BME280;38258;51.148;14.068;2023-02-10T00:03:13;99952.38;;;-5.43;100.00
52319;BME280;38258;51.148;14.068;2023-02-10T00:05:39;99945.81;;;-5.53;100.00
52319;BME280;38258;51.148;14.068;2023-02-10T00:08:07;99947.69;;;-5.50;100.00
52319;BME280;38258;51.148;14.068;2023-02-10T00:10:34;99937.09;;;-5.85;100.00
52319;BME280;38258;51.148;14.068;2023-02-10T00:13:01;99939.28;;;-6.04;100.00
52319;BME280;38258;51.148;14.068;2023-02-10T00:15:28;99937.44;;;-6.07;100.00
52319;BME280;38258;51.148;14.068;2023-02-10T00:17:55;99935.47;;;-6.11;100.00
52319;BME280;38258;51.148;14.068;2023-02-10T00:20:22;99938.13;;;-6.09;100.00
52319;BME280;38258;51.148;14.068;2023-02-10T00:22:48;99937.53;;;-6.19;100.00
52319;BME280;38258;51.148;14.068;2023-02-10T00:25:17;99935.38;;;-6.26;100.00
52319;BME280;38258;51.148;14.068;2023-02-10T00:27:43;99937.13;;;-6.52;100.00
52319;BME280;38258;51.148;14.068;2023-02-10T00:30:12;99946.34;;;-6.54;100.00
52319;BME280;38258;51.148;14.068;2023-02-10T00:32:39;99953.00;;;-6.56;100.00
52319;BME280;38258;51.148;14.068;2023-02-10T00:35:06;99946.78;;;-6.73;100.00
52319;BME280;38258;51.148;14.068;2023-02-10T00:37:34;99951.88;;;-6.73;100.00
52319;BME280;38258;51.148;14.068;2023-02-10T00:40:01;99953.75;;;-6.71;100.00
52319;BME280;38258;51.148;14.068;2023-02-10T00:42:29;99957.13;;;-6.84;100.00
52319;BME280;38258;51.148;14.068;2023-02-10T00:44:56;99955.75;;;-6.92;100.00
52319;BME280;38258;51.148;14.068;2023-02-10T00:47:23;99962.69;;;-7.03;100.00
52319;BME280;38258;51.148;14.068;2023-02-10T00:49:53;99967.78;;;-7.15;100.00
52319;BME280;38258;51.148;14.068;2023-02-10T00:52:21;99968.00;;;-7.37;100.00
52319;BME280;38258;51.148;14.068;2023-02-10T00:54:48;99966.69;;;-7.44;100.00
52319;BME280;38258;51.148;14.068;2023-02-10T00:57:15;99968.97;;;-7.72;100.00
52319;BME280;38258;51.148;14.068;2023-02-10T00:59:43;99959.06;;;-7.81;100.00
52319;BME280;38258;51.148;14.068;2023-02-10T01:02:10;99961.34;;;-7.84;100.00
52319;BME280;38258;51.148;14.068;2023-02-10T01:04:37;99968.66;;;-7.40;100.00
52319;BME280;38258;51.148;14.068;2023-02-10T01:07:04;99964.94;;;-7.45;100.00
52319;BME280;38258;51.148;14.068;2023-02-10T01:09:31;99956.97;;;-7.49;100.00
52319;BME280;38258;51.148;14.068;2023-02-10T01:11:58;99966.03;;;-7.53;100.00
52319;BME280;38258;51.148;14.068;2023-02-10T01:14:25;99967.38;;;-7.58;100.00
52319;BME280;38258;51.148;14.068;2023-02-10T01:16:54;99951.84;;;-7.75;100.00
52319;BME280;38258;51.148;14.068;2023-02-10T01:19:21;99975.47;;;-7.64;100.00
52319;BME280;38258;51.148;14.068;2023-02-10T01:21:48;99967.66;;;-7.79;100.00
52319;BME280;38258;51.148;14.068;2023-02-10T01:24:14;99967.09;;;-7.75;100.00
52319;BME280;38258;51.148;14.068;2023-02-10T01:26:42;99973.28;;;-7.83;100.00
52319;BME280;38258;51.148;14.068;2023-02-10T01:29:09;99973.44;;;-7.93;100.00
52319;BME280;38258;51.148;14.068;2023-02-10T01:31:37;99974.53;;;-8.14;100.00
52319;BME280;38258;51.148;14.068;2023-02-10T01:34:05;99981.59;;;-8.10;100.00
52319;BME280;38258;51.148;14.068;2023-02-10T01:36:36;99974.09;;;-8.08;100.00
52319;BME280;38258;51.148;14.068;2023-02-10T01:39:03;99981.59;;;-8.10;100.00
52319;BME280;38258;51.148;14.068;2023-02-10T01:41:30;99992.28;;;-8.26;100.00
52319;BME280;38258;51.148;14.068;2023-02-10T01:44:01;99994.66;;;-8.17;100.00
52319;BME280;38258;51.148;14.068;2023-02-10T01:46:30;99989.00;;;-8.13;100.00
52319;BME280;38258;51.148;14.068;2023-02-10T01:49:02;99990.88;;;-8.22;100.00
52319;BME280;38258;51.148;14.068;2023-02-10T01:51:37;99986.34;;;-8.26;100.00
52319;BME280;38258;51.148;14.068;2023-02-10T01:54:05;99984.13;;;-8.33;100.00
52319;BME280;38258;51.148;14.068;2023-02-10T01:56:35;99978.41;;;-8.31;100.00
52319;BME280;38258;51.148;14.068;2023-02-10T01:59:03;99968.34;;;-8.41;100.00
52319;BME280;38258;51.148;14.068;2023-02-10T02:01:30;99962.16;;;-8.21;100.00
52319;BME280;38258;51.148;14.068;2023-02-10T02:03:57;99969.09;;;-7.33;100.00
52319;BME280;38258;51.148;14.068;2023-02-10T02:06:25;99969.94;;;-7.21;100.00
52319;BME280;38258;51.148;14.068;2023-02-10T02:08:53;99974.19;;;-7.33;100.00
52319;BME280;38258;51.148;14.068;2023-02-10T02:11:23;99971.75;;;-7.06;100.00
52319;BME280;38258;51.148;14.068;2023-02-10T02:14:21;99973.78;;;-7.52;100.00
52319;BME280;38258;51.148;14.068;2023-02-10T02:16:59;99972.75;;;-7.79;100.00
52319;BME280;38258;51.148;14.068;2023-02-10T02:23:34;99977.28;;;-8.11;100.00
52319;BME280;38258;51.148;14.068;2023-02-10T02:26:34;99975.06;;;-8.18;100.00
52319;BME280;38258;51.148;14.068;2023-02-10T02:29:15;99986.13;;;-8.17;100.00
52319;BME280;38258;51.148;14.068;2023-02-10T02:31:59;99986.91;;;-8.06;100.00
52319;BME280;38258;51.148;14.068;2023-02-10T02:34:35;99978.50;;;-8.05;100.00
52319;BME280;38258;51.148;14.068;2023-02-10T02:37:08;99984.94;;;-8.23;100.00
52319;BME280;38258;51.148;14.068;2023-02-10T02:39:36;99985.09;;;-7.60;100.00
52319;BME280;38258;51.148;14.068;2023-02-10T02:42:27;99980.50;;;-8.01;100.00
52319;BME280;38258;51.148;14.068;2023-02-10T02:44:58;99989.13;;;-7.99;100.00
52319;BME280;38258;51.148;14.068;2023-02-10T02:47:45;99989.09;;;-8.23;100.00
52319;BME280;38258;51.148;14.068;2023-02-10T02:50:26;99994.31;;;-8.21;100.00
52319;BME280;38258;51.148;14.068;2023-02-10T02:53:20;99987.03;;;-8.17;100.00
52319;BME280;38258;51.148;14.068;2023-02-10T02:55:54;99989.13;;;-7.99;100.00
52319;BME280;38258;51.148;14.068;2023-02-10T02:58:32;99991.09;;;-8.19;100.00
52319;BME280;38258;51.148;14.068;2023-02-10T03:01:04;99982.81;;;-8.16;100.00
52319;BME280;38258;51.148;14.068;2023-02-10T03:03:35;99983.69;;;-7.92;100.00
52319;BME280;38258;51.148;14.068;2023-02-10T03:06:03;99987.16;;;-7.54;100.00
52319;BME280;38258;51.148;14.068;2023-02-10T03:08:32;99981.44;;;-7.26;100.00
52319;BME280;38258;51.148;14.068;2023-02-10T03:10:59;99985.06;;;-7.22;100.00
52319;BME280;38258;51.148;14.068;2023-02-10T03:13:26;99981.19;;;-6.92;100.00
52319;BME280;38258;51.148;14.068;2023-02-10T03:15:53;99993.09;;;-7.04;100.00
52319;BME280;38258;51.148;14.068;2023-02-10T03:18:20;99987.47;;;-6.87;100.00
52319;BME280;38258;51.148;14.068;2023-02-10T03:20:48;99994.03;;;-6.77;100.00
52319;BME280;38258;51.148;14.068;2023-02-10T03:23:15;99987.63;;;-6.72;100.00
52319;BME280;38258;51.148;14.068;2023-02-10T03:25:43;99979.16;;;-6.84;100.00
52319;BME280;38258;51.148;14.068;2023-02-10T03:28:11;99980.41;;;-6.91;100.00
52319;BME280;38258;51.148;14.068;2023-02-10T03:30:38;99986.84;;;-6.96;100.00
52319;BME280;38258;51.148;14.068;2023-02-10T03:33:12;99976.47;;;-6.99;100.00
52319;BME280;38258;51.148;14.068;2023-02-10T03:35:39;99976.72;;;-7.08;100.00
52319;BME280;38258;51.148;14.068;2023-02-10T03:38:07;99981.28;;;-6.90;100.00
52319;BME280;38258;51.148;14.068;2023-02-10T03:40:34;99988.28;;;-6.74;100.00
52319;BME280;38258;51.148;14.068;2023-02-10T03:43:01;99975.44;;;-6.76;100.00
52319;BME280;38258;51.148;14.068;2023-02-10T03:45:28;99987.94;;;-6.54;100.00
52319;BME280;38258;51.148;14.068;2023-02-10T03:47:55;99980.41;;;-6.52;100.00
52319;BME280;38258;51.148;14.068;2023-02-10T03:50:22;99988.75;;;-6.28;100.00
52319;BME280;38258;51.148;14.068;2023-02-10T03:52:48;99987.56;;;-5.92;100.00
52319;BME280;38258;51.148;14.068;2023-02-10T03:55:17;99997.00;;;-5.49;100.00
52319;BME280;38258;51.148;14.068;2023-02-10T03:57:45;99983.88;;;-5.42;100.00
52319;BME280;38258;51.148;14.068;2023-02-10T04:00:14;99993.94;;;-5.30;100.00
52319;BME280;38258;51.148;14.068;2023-02-10T04:02:42;100002.03;;;-5.22;100.00
52319;BME280;38258;51.148;14.068;2023-02-10T04:05:09;99997.59;;;-5.12;100.00
52319;BME280;38258;51.148;14.068;2023-02-10T04:07:36;99999.66;;;-5.19;100.00
52319;BME280;38258;51.148;14.068;2023-02-10T04:10:04;100000.59;;;-5.04;100.00
52319;BME280;38258;51.148;14.068;2023-02-10T04:12:32;99998.19;;;-5.16;100.00
52319;BME280;38258;51.148;14.068;2023-02-10T04:14:59;99991.63;;;-5.12;100.00
52319;BME280;38258;51.148;14.068;2023-02-10T04:17:26;99989.75;;;-5.15;100.00
52319;BME280;38258;51.148;14.068;2023-02-10T04:19:53;99993.72;;;-5.05;100.00
52319;BME280;38258;51.148;14.068;2023-02-10T04:22:20;100008.81;;;-4.94;100.00
52319;BME280;38258;51.148;14.068;2023-02-10T04:24:47;100012.44;;;-4.91;100.00
52319;BME280;38258;51.148;14.068;2023-02-10T04:27:14;100014.09;;;-4.91;100.00
52319;BME280;38258;51.148;14.068;2023-02-10T04:29:42;100020.44;;;-4.85;100.00
52319;BME280;38258;51.148;14.068;2023-02-10T04:32:09;100020.09;;;-4.91;100.00
52319;BME280;38258;51.148;14.068;2023-02-10T04:34:36;100022.41;;;-4.80;100.00
52319;BME280;38258;51.148;14.068;2023-02-10T04:37:03;100026.47;;;-4.69;100.00
52319;BME280;38258;51.148;14.068;2023-02-10T04:39:29;100021.38;;;-4.69;100.00
52319;BME280;38258;51.148;14.068;2023-02-10T04:41:56;100014.16;;;-4.61;100.00
52319;BME280;38258;51.148;14.068;2023-02-10T04:44:23;100019.53;;;-4.57;100.00
52319;BME280;38258;51.148;14.068;2023-02-10T04:46:52;100043.25;;;-4.44;100.00
52319;BME280;38258;51.148;14.068;2023-02-10T04:49:19;100037.50;;;-4.55;100.00
52319;BME280;38258;51.148;14.068;2023-02-10T04:51:45;100045.19;;;-4.40;100.00
52319;BME280;38258;51.148;14.068;2023-02-10T04:54:13;100040.50;;;-4.32;100.00
52319;BME280;38258;51.148;14.068;2023-02-10T04:56:40;100035.84;;;-4.40;100.00
52319;BME280;38258;51.148;14.068;2023-02-10T04:59:06;100034.72;;;-4.30;100.00
52319;BME280;38258;51.148;14.068;2023-02-10T05:01:33;100046.25;;;-4.21;100.00
52319;BME280;38258;51.148;14.068;2023-02-10T05:04:02;100013.22;;;-4.48;100.00
52319;BME280;38258;51.148;14.068;2023-02-10T05:06:28;100043.34;;;-4.28;100.00
52319;BME280;38258;51.148;14.068;2023-02-10T05:08:55;100045.28;;;-4.23;100.00
52319;BME280;38258;51.148;14.068;2023-02-10T05:11:22;100051.38;;;-4.21;100.00
52319;BME280;38258;51.148;14.068;2023-02-10T05:13:48;100054.97;;;-4.18;100.00
52319;BME280;38258;51.148;14.068;2023-02-10T05:16:16;100055.06;;;-4.16;100.00
52319;BME280;38258;51.148;14.068;2023-02-10T05:18:43;100052.06;;;-4.09;100.00
52319;BME280;38258;51.148;14.068;2023-02-10T05:21:12;100050.66;;;-4.04;100.00
52319;BME280;38258;51.148;14.068;2023-02-10T05:23:40;100056.47;;;-4.06;100.00
52319;BME280;38258;51.148;14.068;2023-02-10T05:26:07;100054.81;;;-4.06;100.00
52319;BME280;38258;51.148;14.068;2023-02-10T05:28:34;100056.84;;;-4.00;100.00
52319;BME280;38258;51.148;14.068;2023-02-10T05:31:01;100055.94;;;-4.01;100.00
52319;BME280;38258;51.148;14.068;2023-02-10T05:33:29;100062.97;;;-3.97;100.00
52319;BME280;38258;51.148;14.068;2023-02-10T05:35:56;100060.69;;;-3.92;100.00
52319;BME280;38258;51.148;14.068;2023-02-10T05:38:24;100059.31;;;-3.87;100.00
52319;BME280;38258;51.148;14.068;2023-02-10T05:40:51;100066.78;;;-3.90;100.00
52319;BME280;38258;51.148;14.068;2023-02-10T05:43:18;100060.00;;;-3.89;100.00
52319;BME280;38258;51.148;14.068;2023-02-10T05:45:46;100061.59;;;-3.91;100.00
52319;BME280;38258;51.148;14.068;2023-02-10T05:48:12;100066.72;;;-3.91;100.00
52319;BME280;38258;51.148;14.068;2023-02-10T05:50:39;100070.50;;;-3.85;100.00
52319;BME280;38258;51.148;14.068;2023-02-10T05:53:13;100062.81;;;-4.00;100.00
52319;BME280;38258;51.148;14.068;2023-02-10T05:55:41;100077.09;;;-3.88;100.00
52319;BME280;38258;51.148;14.068;2023-02-10T05:58:08;100065.81;;;-3.92;100.00
52319;BME280;38258;51.148;14.068;2023-02-10T06:00:34;100082.53;;;-3.82;100.00
52319;BME280;38258;51.148;14.068;2023-02-10T06:03:01;100072.69;;;-3.91;100.00
52319;BME280;38258;51.148;14.068;2023-02-10T06:05:28;100081.41;;;-3.87;100.00
52319;BME280;38258;51.148;14.068;2023-02-10T06:07:55;100086.53;;;-3.87;100.00
52319;BME280;38258;51.148;14.068;2023-02-10T06:10:22;100088.72;;;-3.78;100.00
52319;BME280;38258;51.148;14.068;2023-02-10T06:12:50;100085.91;;;-3.83;100.00
52319;BME280;38258;51.148;14.068;2023-02-10T06:15:17;100073.47;;;-3.77;100.00
52319;BME280;38258;51.148;14.068;2023-02-10T06:17:44;100083.53;;;-3.80;100.00
52319;BME280;38258;51.148;14.068;2023-02-10T06:20:11;100074.34;;;-3.76;100.00
52319;BME280;38258;51.148;14.068;2023-02-10T06:22:37;100095.06;;;-3.72;100.00
52319;BME280;38258;51.148;14.068;2023-02-10T06:25:05;100103.00;;;-3.67;100.00
52319;BME280;38258;51.148;14.068;2023-02-10T06:27:31;100104.88;;;-3.64;100.00
52319;BME280;38258;51.148;14.068;2023-02-10T06:29:59;100108.66;;;-3.58;100.00
52319;BME280;38258;51.148;14.068;2023-02-10T06:32:26;100113.03;;;-3.55;100.00
52319;BME280;38258;51.148;14.068;2023-02-10T06:34:53;100114.53;;;-3.59;100.00
52319;BME280;38258;51.148;14.068;2023-02-10T06:37:19;100102.31;;;-3.64;100.00
52319;BME280;38258;51.148;14.068;2023-02-10T06:39:46;100114.91;;;-3.52;100.00
52319;BME280;38258;51.148;14.068;2023-02-10T06:42:13;100125.22;;;-3.51;100.00
52319;BME280;38258;51.148;14.068;2023-02-10T06:44:39;100115.84;;;-3.50;100.00
52319;BME280;38258;51.148;14.068;2023-02-10T06:47:07;100103.31;;;-3.46;100.00
52319;BME280;38258;51.148;14.068;2023-02-10T06:49:34;100110.22;;;-3.45;100.00
52319;BME280;38258;51.148;14.068;2023-02-10T06:52:02;100080.56;;;-3.56;100.00
52319;BME280;38258;51.148;14.068;2023-02-10T06:54:29;100116.00;;;-3.32;100.00
52319;BME280;38258;51.148;14.068;2023-02-10T06:56:56;100131.38;;;-3.32;100.00
52319;BME280;38258;51.148;14.068;2023-02-10T06:59:22;100128.25;;;-3.27;100.00
52319;BME280;38258;51.148;14.068;2023-02-10T07:01:49;100074.06;;;-3.51;100.00
52319;BME280;38258;51.148;14.068;2023-02-10T07:04:17;100137.22;;;-3.18;100.00
52319;BME280;38258;51.148;14.068;2023-02-10T07:06:44;100143.66;;;-3.10;100.00
52319;BME280;38258;51.148;14.068;2023-02-10T07:09:11;100137.75;;;-3.09;100.00
52319;BME280;38258;51.148;14.068;2023-02-10T07:11:38;100133.81;;;-3.19;100.00
52319;BME280;38258;51.148;14.068;2023-02-10T07:14:04;100143.91;;;-3.05;100.00
52319;BME280;38258;51.148;14.068;2023-02-10T07:16:31;100144.94;;;-3.02;100.00
52319;BME280;38258;51.148;14.068;2023-02-10T07:18:58;100145.31;;;-2.95;100.00
52319;BME280;38258;51.148;14.068;2023-02-10T07:21:26;100136.31;;;-3.04;100.00
52319;BME280;38258;51.148;14.068;2023-02-10T07:23:52;100157.22;;;-2.96;100.00
52319;BME280;38258;51.148;14.068;2023-02-10T07:26:19;100148.56;;;-2.98;100.00
52319;BME280;38258;51.148;14.068;2023-02-10T07:28:46;100151.28;;;-2.95;100.00
52319;BME280;38258;51.148;14.068;2023-02-10T07:31:13;100145.56;;;-2.91;100.00
52319;BME280;38258;51.148;14.068;2023-02-10T07:33:40;100132.41;;;-2.80;100.00
52319;BME280;38258;51.148;14.068;2023-02-10T07:36:07;100133.88;;;-2.69;100.00
52319;BME280;38258;51.148;14.068;2023-02-10T07:38:35;100132.69;;;-2.59;100.00
52319;BME280;38258;51.148;14.068;2023-02-10T07:41:03;100139.66;;;-2.40;100.00
52319;BME280;38258;51.148;14.068;2023-02-10T07:43:31;100140.16;;;-2.47;100.00
52319;BME280;38258;51.148;14.068;2023-02-10T07:46:03;100145.44;;;-2.28;100.00
52319;BME280;38258;51.148;14.068;2023-02-10T07:48:30;100142.22;;;-2.23;100.00
52319;BME280;38258;51.148;14.068;2023-02-10T07:50:56;100129.34;;;-2.25;100.00
52319;BME280;38258;51.148;14.068;2023-02-10T07:53:23;100142.53;;;-2.17;100.00
52319;BME280;38258;51.148;14.068;2023-02-10T07:55:51;100149.53;;;-2.15;100.00
52319;BME280;38258;51.148;14.068;2023-02-10T07:58:18;100153.09;;;-2.11;100.00
52319;BME280;38258;51.148;14.068;2023-02-10T08:00:45;100156.22;;;-2.00;100.00
52319;BME280;38258;51.148;14.068;2023-02-10T08:03:12;100140.78;;;-2.18;100.00
52319;BME280;38258;51.148;14.068;2023-02-10T08:05:39;100161.91;;;-1.89;100.00
52319;BME280;38258;51.148;14.068;2023-02-10T08:08:07;100157.88;;;-1.84;100.00
52319;BME280;38258;51.148;14.068;2023-02-10T08:10:36;100165.66;;;-1.82;100.00
52319;BME280;38258;51.148;14.068;2023-02-10T08:13:05;100163.91;;;-1.83;100.00
52319;BME280;38258;51.148;14.068;2023-02-10T08:15:32;100159.16;;;-1.76;100.00
52319;BME280;38258;51.148;14.068;2023-02-10T08:17:59;100154.25;;;-1.71;100.00
52319;BME280;38258;51.148;14.068;2023-02-10T08:20:26;100164.69;;;-1.85;100.00
52319;BME280;38258;51.148;14.068;2023-02-10T08:22:53;100163.09;;;-1.82;100.00
52319;BME280;38258;51.148;14.068;2023-02-10T08:25:21;100147.75;;;-1.81;100.00
52319;BME280;38258;51.148;14.068;2023-02-10T08:27:48;100151.63;;;-1.54;100.00
52319;BME280;38258;51.148;14.068;2023-02-10T08:30:17;100157.38;;;-1.59;100.00
52319;BME280;38258;51.148;14.068;2023-02-10T08:32:44;100165.69;;;-1.64;100.00
52319;BME280;38258;51.148;14.068;2023-02-10T08:35:11;100154.81;;;-1.59;100.00
52319;BME280;38258;51.148;14.068;2023-02-10T08:37:37;100169.44;;;-1.58;100.00
52319;BME280;38258;51.148;14.068;2023-02-10T08:40:05;100164.09;;;-1.62;100.00
52319;BME280;38258;51.148;14.068;2023-02-10T08:42:32;100168.13;;;-1.49;100.00
52319;BME280;38258;51.148;14.068;2023-02-10T08:44:59;100165.25;;;-1.37;100.00
52319;BME280;38258;51.148;14.068;2023-02-10T08:47:28;100155.66;;;-1.42;100.00
52319;BME280;38258;51.148;14.068;2023-02-10T08:49:54;100178.53;;;-1.28;100.00
52319;BME280;38258;51.148;14.068;2023-02-10T08:52:22;100180.84;;;-1.34;100.00
52319;BME280;38258;51.148;14.068;2023-02-10T08:54:49;100188.16;;;-1.42;100.00
52319;BME280;38258;51.148;14.068;2023-02-10T08:57:16;100193.28;;;-1.42;100.00
52319;BME280;38258;51.148;14.068;2023-02-10T08:59:43;100183.69;;;-1.28;100.00
52319;BME280;38258;51.148;14.068;2023-02-10T09:02:10;100173.50;;;-1.26;100.00
52319;BME280;38258;51.148;14.068;2023-02-10T09:04:40;100187.06;;;-1.29;100.00
52319;BME280;38258;51.148;14.068;2023-02-10T09:07:07;100187.19;;;-1.26;100.00
52319;BME280;38258;51.148;14.068;2023-02-10T09:09:37;100197.41;;;-1.27;100.00
52319;BME280;38258;51.148;14.068;2023-02-10T09:12:05;100208.25;;;-1.33;100.00
52319;BME280;38258;51.148;14.068;2023-02-10T09:14:32;100197.63;;;-1.41;100.00
52319;BME280;38258;51.148;14.068;2023-02-10T09:16:59;100201.22;;;-1.19;100.00
52319;BME280;38258;51.148;14.068;2023-02-10T09:19:26;100210.44;;;-1.23;100.00
52319;BME280;38258;51.148;14.068;2023-02-10T09:21:54;100202.00;;;-1.38;100.00
52319;BME280;38258;51.148;14.068;2023-02-10T09:24:22;100200.34;;;-1.20;100.00
52319;BME280;38258;51.148;14.068;2023-02-10T09:26:48;100206.59;;;-1.15;100.00
52319;BME280;38258;51.148;14.068;2023-02-10T09:29:15;100205.53;;;-1.18;100.00
52319;BME280;38258;51.148;14.068;2023-02-10T09:31:42;100203.56;;;-1.24;100.00
52319;BME280;38258;51.148;14.068;2023-02-10T09:34:09;100200.56;;;-1.15;100.00
52319;BME280;38258;51.148;14.068;2023-02-10T09:36:36;100199.69;;;-1.16;100.00
52319;BME280;38258;51.148;14.068;2023-02-10T09:39:04;100200.84;;;-1.27;100.00
52319;BME280;38258;51.148;14.068;2023-02-10T09:41:42;100211.44;;;-1.21;100.00
52319;BME280;38258;51.148;14.068;2023-02-10T09:44:15;100219.28;;;-1.18;100.00
52319;BME280;38258;51.148;14.068;2023-02-10T09:47:05;100216.84;;;-1.33;100.00
52319;BME280;38258;51.148;14.068;2023-02-10T09:49:56;100198.34;;;-1.44;100.00
52319;BME280;38258;51.148;14.068;2023-02-10T09:52:32;100209.78;;;-1.37;100.00
52319;BME280;38258;51.148;14.068;2023-02-10T09:55:08;100217.97;;;-1.27;100.00
52319;BME280;38258;51.148;14.068;2023-02-10T09:57:41;100217.19;;;-1.25;100.00
52319;BME280;38258;51.148;14.068;2023-02-10T10:00:19;100217.78;;;-1.31;100.00
52319;BME280;38258;51.148;14.068;2023-02-10T10:02:50;100222.06;;;-1.31;100.00
52319;BME280;38258;51.148;14.068;2023-02-10T10:05:23;100216.19;;;-1.29;100.00
52319;BME280;38258;51.148;14.068;2023-02-10T10:07:57;100187.78;;;-1.50;100.00
52319;BME280;38258;51.148;14.068;2023-02-10T10:10:28;100220.44;;;-1.29;100.00
52319;BME280;38258;51.148;14.068;2023-02-10T10:12:58;100211.84;;;-1.30;100.00
52319;BME280;38258;51.148;14.068;2023-02-10T10:15:33;100207.47;;;-1.32;100.00
52319;BME280;38258;51.148;14.068;2023-02-10T10:18:10;100213.09;;;-1.21;100.00
52319;BME280;38258;51.148;14.068;2023-02-10T10:20:50;100214.50;;;-1.28;100.00
52319;BME280;38258;51.148;14.068;2023-02-10T10:23:42;100216.47;;;-1.22;100.00
52319;BME280;38258;51.148;14.068;2023-02-10T10:26:24;100213.03;;;-1.23;100.00
52319;BME280;38258;51.148;14.068;2023-02-10T10:29:01;100211.22;;;-1.25;100.00
52319;BME280;38258;51.148;14.068;2023-02-10T10:31:35;100213.78;;;-1.25;100.00
52319;BME280;38258;51.148;14.068;2023-02-10T10:34:10;100206.78;;;-1.28;100.00
52319;BME280;38258;51.148;14.068;2023-02-10T10:36:41;100213.03;;;-1.23;100.00
52319;BME280;38258;51.148;14.068;2023-02-10T10:39:13;100209.06;;;-1.34;100.00
52319;BME280;38258;51.148;14.068;2023-02-10T10:41:44;100212.81;;;-1.09;100.00
52319;BME280;38258;51.148;14.068;2023-02-10T10:44:16;100208.06;;;-1.20;100.00
52319;BME280;38258;51.148;14.068;2023-02-10T10:46:45;100205.63;;;-1.17;100.00
52319;BME280;38258;51.148;14.068;2023-02-10T10:49:14;100211.94;;;-1.10;100.00
52319;BME280;38258;51.148;14.068;2023-02-10T10:51:41;100206.72;;;-1.11;100.00
52319;BME280;38258;51.148;14.068;2023-02-10T10:54:14;100215.56;;;-1.06;100.00
52319;BME280;38258;51.148;14.068;2023-02-10T10:56:45;100220.59;;;-1.08;100.00
52319;BME280;38258;51.148;14.068;2023-02-10T10:59:16;100227.88;;;-0.99;100.00
52319;BME280;38258;51.148;14.068;2023-02-10T11:01:45;100227.63;;;-1.04;100.00
52319;BME280;38258;51.148;14.068;2023-02-10T11:04:14;100211.81;;;-1.13;100.00
52319;BME280;38258;51.148;14.068;2023-02-10T11:06:44;100216.84;;;-1.15;100.00
52319;BME280;38258;51.148;14.068;2023-02-10T11:09:20;100231.78;;;-1.07;100.00
52319;BME280;38258;51.148;14.068;2023-02-10T11:11:50;100229.72;;;-0.96;100.00
52319;BME280;38258;51.148;14.068;2023-02-10T11:14:20;100228.91;;;-0.95;100.00
52319;BME280;38258;51.148;14.068;2023-02-10T11:16:50;100219.69;;;-1.08;100.00
52319;BME280;38258;51.148;14.068;2023-02-10T11:19:21;100218.13;;;-1.06;100.00
52319;BME280;38258;51.148;14.068;2023-02-10T11:21:49;100215.34;;;-0.93;100.00
52319;BME280;38258;51.148;14.068;2023-02-10T11:24:22;100221.41;;;-0.91;100.00
52319;BME280;38258;51.148;14.068;2023-02-10T11:26:59;100196.31;;;-1.15;100.00
52319;BME280;38258;51.148;14.068;2023-02-10T11:29:28;100230.78;;;-0.91;100.00
52319;BME280;38258;51.148;14.068;2023-02-10T11:31:55;100232.31;;;-0.95;100.00
52319;BME280;38258;51.148;14.068;2023-02-10T11:34:28;100211.81;;;-1.13;100.00
52319;BME280;38258;51.148;14.068;2023-02-10T11:36:57;100227.38;;;-0.92;100.00
52319;BME280;38258;51.148;14.068;2023-02-10T11:39:27;100222.72;;;-0.81;100.00
52319;BME280;38258;51.148;14.068;2023-02-10T11:42:07;100234.41;;;-0.88;100.00
52319;BME280;38258;51.148;14.068;2023-02-10T11:44:34;100227.19;;;-0.95;100.00
52319;BME280;38258;51.148;14.068;2023-02-10T11:47:03;100223.63;;;-0.98;100.00
52319;BME280;38258;51.148;14.068;2023-02-10T11:49:34;100191.69;;;-1.04;100.00
52319;BME280;38258;51.148;14.068;2023-02-10T11:52:03;100232.88;;;-0.84;100.00
52319;BME280;38258;51.148;14.068;2023-02-10T11:54:31;100236.44;;;-0.80;100.00
52319;BME280;38258;51.148;14.068;2023-02-10T11:57:14;100228.69;;;-0.82;100.00
52319;BME280;38258;51.148;14.068;2023-02-10T12:00:07;100226.97;;;-0.63;100.00
52319;BME280;38258;51.148;14.068;2023-02-10T12:02:53;100221.13;;;-0.59;100.00
52319;BME280;38258;51.148;14.068;2023-02-10T12:05:28;100220.34;;;-0.58;100.00
52319;BME280;38258;51.148;14.068;2023-02-10T12:08:07;100209.97;;;-0.41;100.00
52319;BME280;38258;51.148;14.068;2023-02-10T12:10:40;100206.94;;;-0.33;100.00
52319;BME280;38258;51.148;14.068;2023-02-10T12:13:22;100193.38;;;-0.29;100.00
52319;BME280;38258;51.148;14.068;2023-02-10T12:16:01;100200.06;;;-0.32;100.00
52319;BME280;38258;51.148;14.068;2023-02-10T12:18:40;100154.66;;;-0.51;100.00
52319;BME280;38258;51.148;14.068;2023-02-10T12:21:33;100197.19;;;-0.01;100.00
52319;BME280;38258;51.148;14.068;2023-02-10T12:24:14;100174.03;;;-0.20;100.00
52319;BME280;38258;51.148;14.068;2023-02-10T12:26:50;100194.44;;;0.16;100.00
52319;BME280;38258;51.148;14.068;2023-02-10T12:29:29;100196.28;;;0.19;100.00
52319;BME280;38258;51.148;14.068;2023-02-10T12:32:04;100197.16;;;0.40;100.00
52319;BME280;38258;51.148;14.068;2023-02-10T12:34:48;100185.19;;;0.41;100.00
52319;BME280;38258;51.148;14.068;2023-02-10T12:37:28;100185.63;;;0.52;100.00
52319;BME280;38258;51.148;14.068;2023-02-10T12:42:49;100184.00;;;0.54;100.00
52319;BME280;38258;51.148;14.068;2023-02-10T12:45:28;100195.59;;;0.23;100.00
52319;BME280;38258;51.148;14.068;2023-02-10T12:48:01;100187.44;;;0.33;100.00
52319;BME280;38258;51.148;14.068;2023-02-10T12:50:47;100186.94;;;0.42;100.00
52319;BME280;38258;51.148;14.068;2023-02-10T12:53:24;100176.53;;;0.39;100.00